createdAt,value
2018-04-02T00:00:49.045Z,4.00
2018-04-02T00:01:49.055Z,4.00
2018-04-02T00:02:49.074Z,4.00
2018-04-02T00:03:49.079Z,4.00
2018-04-02T00:04:49.095Z,4.00
2018-04-02T00:05:49.109Z,4.00
2018-04-02T00:06:49.118Z,4.00
2018-04-02T00:07:49.137Z,4.00
2018-04-02T00:08:49.198Z,4.00
2018-04-02T00:09:49.159Z,4.00
2018-04-02T00:10:49.170Z,4.00
2018-04-02T00:11:49.184Z,4.00
2018-04-02T00:12:49.201Z,4.00
2018-04-02T00:13:49.208Z,4.00
2018-04-02T00:14:49.227Z,4.00
2018-04-02T00:15:49.287Z,4.00
2018-04-02T00:16:49.248Z,4.00
2018-04-02T00:17:49.264Z,4.00
2018-04-02T00:18:49.272Z,4.00
2018-04-02T00:19:49.285Z,4.00
2018-04-02T00:20:49.299Z,4.00
2018-04-02T00:21:49.311Z,4.00
2018-04-02T00:22:49.325Z,4.00
2018-04-02T00:23:49.435Z,4.00
2018-04-02T00:24:49.349Z,4.00
2018-04-02T00:25:49.362Z,4.00
2018-04-02T00:26:49.377Z,4.00
2018-04-02T00:27:49.390Z,4.00
2018-04-02T00:28:49.401Z,4.00
2018-04-02T00:29:49.413Z,4.00
2018-04-02T00:30:49.425Z,4.00
2018-04-02T00:31:49.437Z,4.00
2018-04-02T00:32:49.454Z,4.00
2018-04-02T00:33:49.462Z,4.00
2018-04-02T00:34:49.475Z,4.00
2018-04-02T00:35:49.485Z,4.00
2018-04-02T00:36:49.499Z,4.00
2018-04-02T00:37:49.512Z,4.00
2018-04-02T00:38:49.525Z,4.00
2018-04-02T00:39:49.538Z,4.00
2018-04-02T00:40:49.548Z,4.00
2018-04-02T00:41:49.563Z,4.00
2018-04-02T00:42:49.574Z,4.00
2018-04-02T00:43:49.588Z,4.00
2018-04-02T00:44:49.599Z,4.00
2018-04-02T00:45:49.613Z,4.00
2018-04-02T00:46:49.629Z,4.00
2018-04-02T00:47:49.688Z,4.00
2018-04-02T00:48:50.032Z,4.00
2018-04-02T00:49:49.661Z,4.00
2018-04-02T00:50:49.675Z,4.00
2018-04-02T00:51:49.693Z,4.00
2018-04-02T00:52:49.700Z,4.00
2018-04-02T00:53:49.813Z,4.00
2018-04-02T00:54:49.727Z,4.00
2018-04-02T00:55:49.740Z,4.00
2018-04-02T00:56:49.752Z,4.00
2018-04-02T00:57:49.766Z,4.00
2018-04-02T00:58:49.778Z,4.00
2018-04-02T00:59:49.792Z,4.00
2018-04-02T01:00:49.802Z,4.00
2018-04-02T01:01:49.817Z,4.00
2018-04-02T01:02:49.829Z,4.00
2018-04-02T01:03:49.870Z,4.00
2018-04-02T01:04:49.855Z,4.00
2018-04-02T01:05:49.869Z,4.00
2018-04-02T01:06:49.880Z,4.00
2018-04-02T01:07:49.900Z,4.00
2018-04-02T01:08:49.905Z,4.00
2018-04-02T01:09:49.917Z,4.00
2018-04-02T01:10:49.929Z,4.00
2018-04-02T01:11:49.949Z,4.00
2018-04-02T01:12:49.957Z,4.00
2018-04-02T01:13:49.968Z,4.00
2018-04-02T01:14:49.984Z,4.00
2018-04-02T01:15:49.993Z,4.00
2018-04-02T01:16:50.013Z,4.00
2018-04-02T01:17:50.019Z,4.00
2018-04-02T01:18:50.032Z,4.00
2018-04-02T01:19:50.047Z,4.00
2018-04-02T01:21:50.094Z,4.00
2018-04-02T01:22:50.082Z,4.00
2018-04-02T01:23:50.095Z,4.00
2018-04-02T01:24:50.111Z,4.00
2018-04-02T01:25:50.131Z,4.00
2018-04-02T01:26:50.133Z,4.00
2018-04-02T01:27:50.144Z,4.00
2018-04-02T01:28:50.165Z,4.00
2018-04-02T01:29:50.174Z,4.00
2018-04-02T01:30:50.185Z,4.00
2018-04-02T01:31:50.200Z,4.00
2018-04-02T01:32:50.212Z,4.00
2018-04-02T01:33:50.225Z,4.00
2018-04-02T01:34:50.289Z,4.00
2018-04-02T01:35:50.250Z,4.00
2018-04-02T01:36:50.260Z,4.00
2018-04-02T01:37:50.279Z,4.00
2018-04-02T01:38:50.290Z,4.00
2018-04-02T01:39:50.300Z,4.00
2018-04-02T01:40:50.317Z,4.00
2018-04-02T01:41:50.327Z,4.00
2018-04-02T01:42:50.350Z,4.00
2018-04-02T01:43:50.351Z,4.00
2018-04-02T01:44:50.366Z,4.00
2018-04-02T01:45:50.395Z,4.00
2018-04-02T01:46:50.393Z,4.00
2018-04-02T01:47:50.402Z,4.00
2018-04-02T01:48:50.416Z,4.00
2018-04-02T01:49:50.430Z,4.00
2018-04-02T01:50:50.444Z,4.00
2018-04-02T01:51:50.509Z,4.00
2018-04-02T01:52:50.467Z,4.00
2018-04-02T01:53:50.498Z,4.00
2018-04-02T01:54:50.493Z,4.00
2018-04-02T01:55:50.509Z,4.00
2018-04-02T01:56:50.525Z,4.00
2018-04-02T01:57:50.538Z,4.00
2018-04-02T01:58:50.543Z,4.00
2018-04-02T01:59:50.555Z,4.00
2018-04-02T02:00:50.573Z,4.00
2018-04-02T02:01:50.584Z,4.00
2018-04-02T02:02:50.596Z,4.00
2018-04-02T02:03:50.608Z,4.00
2018-04-02T02:04:50.620Z,4.00
2018-04-02T02:05:50.638Z,4.00
2018-04-02T02:06:50.646Z,4.00
2018-04-02T02:07:50.658Z,4.00
2018-04-02T02:08:50.672Z,4.00
2018-04-02T02:09:50.685Z,4.00
2018-04-02T02:10:50.697Z,4.00
2018-04-02T02:11:50.728Z,4.00
2018-04-02T02:12:50.722Z,4.00
2018-04-02T02:13:50.737Z,4.00
2018-04-02T02:14:50.749Z,4.00
2018-04-02T02:15:50.762Z,4.00
2018-04-02T02:16:50.779Z,4.00
2018-04-02T02:17:50.788Z,4.00
2018-04-02T02:18:50.807Z,4.00
2018-04-02T02:19:50.814Z,4.00
2018-04-02T02:20:50.824Z,4.00
2018-04-02T02:21:50.842Z,4.00
2018-04-02T02:22:50.904Z,4.00
2018-04-02T02:23:50.932Z,4.00
2018-04-02T02:24:50.882Z,4.00
2018-04-02T02:25:50.890Z,4.00
2018-04-02T02:26:50.905Z,4.00
2018-04-02T02:27:50.917Z,4.00
2018-04-02T02:28:50.929Z,4.00
2018-04-02T02:29:50.945Z,4.00
2018-04-02T02:30:50.957Z,4.00
2018-04-02T02:31:50.972Z,4.00
2018-04-02T02:32:50.991Z,4.00
2018-04-02T02:33:50.995Z,4.00
2018-04-02T02:34:51.014Z,4.00
2018-04-02T02:35:51.017Z,4.00
2018-04-02T02:36:51.031Z,4.00
2018-04-02T02:37:51.044Z,4.00
2018-04-02T02:38:51.056Z,4.00
2018-04-02T02:39:51.076Z,4.00
2018-04-02T02:40:51.083Z,4.00
2018-04-02T02:41:51.095Z,4.00
2018-04-02T02:42:51.109Z,4.00
2018-04-02T02:43:51.118Z,4.00
2018-04-02T02:44:51.133Z,4.00
2018-04-02T02:45:51.145Z,4.00
2018-04-02T02:46:51.159Z,4.00
2018-04-02T02:47:51.175Z,4.00
2018-04-02T02:48:51.184Z,4.00
2018-04-02T02:49:51.202Z,4.00
2018-04-02T02:50:51.210Z,4.00
2018-04-02T02:51:51.226Z,4.00
2018-04-02T02:52:51.240Z,4.00
2018-04-02T02:53:51.249Z,4.00
2018-04-02T02:54:51.266Z,4.00
2018-04-02T02:55:51.277Z,4.00
2018-04-02T02:56:51.381Z,4.00
2018-04-02T02:57:51.501Z,4.00
2018-04-02T02:58:51.312Z,4.00
2018-04-02T02:59:51.324Z,4.00
2018-04-02T03:00:51.338Z,4.00
2018-04-02T03:01:51.349Z,4.00
2018-04-02T03:02:51.365Z,4.00
2018-04-02T03:03:51.374Z,4.00
2018-04-02T03:04:51.390Z,4.00
2018-04-02T03:05:51.403Z,4.00
2018-04-02T03:06:51.415Z,4.00
2018-04-02T03:07:51.420Z,4.00
2018-04-02T03:08:51.432Z,4.00
2018-04-02T03:09:51.442Z,4.00
2018-04-02T03:10:51.457Z,4.00
2018-04-02T03:11:51.466Z,4.00
2018-04-02T03:12:51.480Z,4.00
2018-04-02T03:13:51.493Z,4.00
2018-04-02T03:14:51.504Z,4.00
2018-04-02T03:15:51.521Z,4.00
2018-04-02T03:16:51.532Z,4.00
2018-04-02T03:17:51.548Z,4.00
2018-04-02T03:18:51.556Z,4.00
2018-04-02T03:19:51.569Z,4.00
2018-04-02T03:20:51.581Z,4.00
2018-04-02T03:21:51.599Z,4.00
2018-04-02T03:22:51.608Z,4.00
2018-04-02T03:23:51.623Z,4.00
2018-04-02T03:24:51.633Z,4.00
2018-04-02T03:25:51.650Z,4.00
2018-04-02T03:26:51.660Z,4.00
2018-04-02T03:27:51.723Z,4.00
2018-04-02T03:28:51.682Z,4.00
2018-04-02T03:29:51.699Z,4.00
2018-04-02T03:30:51.710Z,4.00
2018-04-02T03:31:51.720Z,4.00
2018-04-02T03:32:51.736Z,4.00
2018-04-02T03:33:51.744Z,4.00
2018-04-02T03:34:51.758Z,4.00
2018-04-02T03:35:51.771Z,4.00
2018-04-02T03:36:51.782Z,4.00
2018-04-02T03:37:51.797Z,4.00
2018-04-02T03:38:51.815Z,4.00
2018-04-02T03:39:51.820Z,4.00
2018-04-02T03:40:51.834Z,4.00
2018-04-02T03:41:51.848Z,4.00
2018-04-02T03:42:51.864Z,4.00
2018-04-02T03:43:51.872Z,4.00
2018-04-02T03:44:51.890Z,4.00
2018-04-02T03:45:51.897Z,4.00
2018-04-02T03:46:51.918Z,4.00
2018-04-02T03:47:51.920Z,4.00
2018-04-02T03:48:51.939Z,4.00
2018-04-02T03:49:51.948Z,4.00
2018-04-02T03:50:51.959Z,4.00
2018-04-02T03:51:51.975Z,4.00
2018-04-02T03:52:51.986Z,4.00
2018-04-02T03:53:52.005Z,4.00
2018-04-02T03:54:52.010Z,4.00
2018-04-02T03:55:52.032Z,4.00
2018-04-02T03:56:52.081Z,4.00
2018-04-02T03:57:52.064Z,4.00
2018-04-02T03:58:52.067Z,4.00
2018-04-02T03:59:52.145Z,4.00
2018-04-02T04:00:52.087Z,4.00
2018-04-02T04:01:52.104Z,4.00
2018-04-02T04:02:52.120Z,4.00
2018-04-02T04:03:52.129Z,4.00
2018-04-02T04:04:52.135Z,4.00
2018-04-02T04:05:52.150Z,4.00
2018-04-02T04:06:52.161Z,4.00
2018-04-02T04:07:52.175Z,4.00
2018-04-02T04:08:52.185Z,4.00
2018-04-02T04:09:52.207Z,4.00
2018-04-02T04:10:52.216Z,4.00
2018-04-02T04:11:52.229Z,4.00
2018-04-02T04:12:52.235Z,4.00
2018-04-02T04:13:52.252Z,4.00
2018-04-02T04:14:52.265Z,4.00
2018-04-02T04:15:52.277Z,4.00
2018-04-02T04:16:52.288Z,4.00
2018-04-02T04:17:52.302Z,4.00
2018-04-02T04:18:52.312Z,4.00
2018-04-02T04:19:52.323Z,4.00
2018-04-02T04:20:52.382Z,4.00
2018-04-02T04:21:52.349Z,4.00
2018-04-02T04:22:52.362Z,4.00
2018-04-02T04:23:52.380Z,4.00
2018-04-02T04:24:52.392Z,4.00
2018-04-02T04:25:52.398Z,4.00
2018-04-02T04:26:52.411Z,4.00
2018-04-02T04:27:52.427Z,4.00
2018-04-02T04:28:52.438Z,4.00
2018-04-02T04:29:52.448Z,4.00
2018-04-02T04:30:52.578Z,4.00
2018-04-02T04:31:52.592Z,4.00
2018-04-02T04:32:52.489Z,4.00
2018-04-02T04:33:52.498Z,4.00
2018-04-02T04:34:52.513Z,4.00
2018-04-02T04:35:52.523Z,4.00
2018-04-02T04:36:52.542Z,4.00
2018-04-02T04:37:52.548Z,4.00
2018-04-02T04:38:52.561Z,4.00
2018-04-02T04:39:52.573Z,4.00
2018-04-02T04:40:52.584Z,4.00
2018-04-02T04:41:52.597Z,4.00
2018-04-02T04:42:52.609Z,4.00
2018-04-02T04:43:52.622Z,4.00
2018-04-02T04:44:52.634Z,8.00
2018-04-02T04:45:52.648Z,4.00
2018-04-02T04:46:52.659Z,4.00
2018-04-02T04:47:52.674Z,8.00
2018-04-02T04:48:52.738Z,8.00
2018-04-02T04:49:52.697Z,4.00
2018-04-02T04:50:52.715Z,4.00
2018-04-02T04:51:52.721Z,8.00
2018-04-02T04:52:52.736Z,4.00
2018-04-02T04:53:52.752Z,8.00
2018-04-02T04:54:52.759Z,8.00
2018-04-02T04:55:52.775Z,12.00
2018-04-02T04:56:52.783Z,12.00
2018-04-02T04:57:52.796Z,12.00
2018-04-02T04:58:52.818Z,16.00
2018-04-02T04:59:52.819Z,20.00
2018-04-02T05:00:52.834Z,20.00
2018-04-02T05:01:52.847Z,28.00
2018-04-02T05:02:52.910Z,28.00
2018-04-02T05:03:52.981Z,32.00
2018-04-02T05:04:52.881Z,40.00
2018-04-02T05:05:52.895Z,44.00
2018-04-02T05:06:52.906Z,52.00
2018-04-02T05:07:52.922Z,52.00
2018-04-02T05:08:52.930Z,52.00
2018-04-02T05:09:52.948Z,52.00
2018-04-02T05:10:52.956Z,56.00
2018-04-02T05:11:53.088Z,60.00
2018-04-02T05:12:52.981Z,68.00
2018-04-02T05:13:52.998Z,76.00
2018-04-02T05:14:53.108Z,80.00
2018-04-02T05:15:53.023Z,76.00
2018-04-02T05:16:53.029Z,76.00
2018-04-02T05:17:53.044Z,76.00
2018-04-02T05:18:53.058Z,76.00
2018-04-02T05:19:53.065Z,84.00
2018-04-02T05:20:53.079Z,96.00
2018-04-02T05:21:53.091Z,104.00
2018-04-02T05:22:53.153Z,108.00
2018-04-02T05:23:53.115Z,108.00
2018-04-02T05:24:53.127Z,108.00
2018-04-02T05:25:53.139Z,120.00
2018-04-02T05:26:53.155Z,124.00
2018-04-02T05:27:53.173Z,116.00
2018-04-02T05:28:53.175Z,120.00
2018-04-02T05:29:53.190Z,140.00
2018-04-02T05:30:53.204Z,160.00
2018-04-02T05:31:53.213Z,172.00
2018-04-02T05:32:53.224Z,176.00
2018-04-02T05:33:53.238Z,172.00
2018-04-02T05:34:53.253Z,180.00
2018-04-02T05:35:53.576Z,184.00
2018-04-02T05:36:53.279Z,196.00
2018-04-02T05:37:53.288Z,224.00
2018-04-02T05:38:53.301Z,240.00
2018-04-02T05:39:53.316Z,256.00
2018-04-02T05:40:53.324Z,276.00
2018-04-02T05:41:53.335Z,280.00
2018-04-02T05:42:53.349Z,292.00
2018-04-02T05:43:53.361Z,296.00
2018-04-02T05:44:53.375Z,308.00
2018-04-02T05:45:53.390Z,312.00
2018-04-02T05:46:53.397Z,328.00
2018-04-02T05:47:53.511Z,336.00
2018-04-02T05:48:53.425Z,348.00
2018-04-02T05:49:53.433Z,340.00
2018-04-02T05:50:53.446Z,348.00
2018-04-02T05:51:53.464Z,364.00
2018-04-02T05:52:53.470Z,392.00
2018-04-02T05:53:53.489Z,432.00
2018-04-02T05:54:53.494Z,448.00
2018-04-02T05:55:53.507Z,448.00
2018-04-02T05:56:53.526Z,456.00
2018-04-02T05:57:53.535Z,488.00
2018-04-02T05:58:53.543Z,520.00
2018-04-02T05:59:53.557Z,560.00
2018-04-02T06:00:53.569Z,592.00
2018-04-02T06:01:53.584Z,608.00
2018-04-02T06:02:53.617Z,620.00
2018-04-02T06:03:53.616Z,640.00
2018-04-02T06:04:53.621Z,684.00
2018-04-02T06:05:53.940Z,712.00
2018-04-02T06:06:53.768Z,748.00
2018-04-02T06:07:53.657Z,784.00
2018-04-02T06:08:53.668Z,816.00
2018-04-02T06:09:53.681Z,848.00
2018-04-02T06:10:53.693Z,880.00
2018-04-02T06:11:53.710Z,904.00
2018-04-02T06:12:53.722Z,904.00
2018-04-02T06:13:53.730Z,892.00
2018-04-02T06:14:53.744Z,920.00
2018-04-02T06:15:53.754Z,936.00
2018-04-02T06:16:53.767Z,956.00
2018-04-02T06:17:53.781Z,988.00
2018-04-02T06:18:53.795Z,1016.00
2018-04-02T06:19:53.812Z,1028.00
2018-04-02T06:20:53.820Z,1036.00
2018-04-02T06:21:53.832Z,1056.00
2018-04-02T06:22:53.841Z,1080.00
2018-04-02T06:23:53.854Z,1100.00
2018-04-02T06:24:53.866Z,1132.00
2018-04-02T06:25:53.879Z,1168.00
2018-04-02T06:26:53.897Z,1172.00
2018-04-02T06:27:53.903Z,1144.00
2018-04-02T06:28:53.914Z,1104.00
2018-04-02T06:29:53.930Z,1068.00
2018-04-02T06:30:53.944Z,1060.00
2018-04-02T06:31:53.970Z,1064.00
2018-04-02T06:32:53.965Z,1076.00
2018-04-02T06:33:53.988Z,1112.00
2018-04-02T06:34:53.993Z,1164.00
2018-04-02T06:35:54.007Z,1236.00
2018-04-02T06:36:54.058Z,1336.00
2018-04-02T06:37:54.034Z,1460.00
2018-04-02T06:38:54.117Z,1580.00
2018-04-02T06:39:54.068Z,1704.00
2018-04-02T06:40:54.084Z,1804.00
2018-04-02T06:41:54.102Z,1828.00
2018-04-02T06:42:54.094Z,1784.00
2018-04-02T06:43:54.110Z,1672.00
2018-04-02T06:44:54.119Z,1568.00
2018-04-02T06:45:54.134Z,1464.00
2018-04-02T06:46:54.147Z,1360.00
2018-04-02T06:47:54.159Z,1300.00
2018-04-02T06:48:54.172Z,1264.00
2018-04-02T06:49:54.189Z,1260.00
2018-04-02T06:50:54.206Z,1248.00
2018-04-02T06:51:54.837Z,1260.00
2018-04-02T06:52:54.260Z,1304.00
2018-04-02T06:53:54.236Z,1380.00
2018-04-02T06:54:54.249Z,1464.00
2018-04-02T06:55:54.261Z,1528.00
2018-04-02T06:56:54.280Z,1572.00
2018-04-02T06:57:54.286Z,1620.00
2018-04-02T06:58:54.307Z,1660.00
2018-04-02T06:59:54.312Z,1696.00
2018-04-02T07:00:54.344Z,1736.00
2018-04-02T07:01:54.341Z,1784.00
2018-04-02T07:02:54.354Z,1840.00
2018-04-02T07:03:54.451Z,1872.00
2018-04-02T07:04:54.383Z,1896.00
2018-04-02T07:05:54.390Z,1892.00
2018-04-02T07:06:54.413Z,1896.00
2018-04-02T07:07:54.421Z,1916.00
2018-04-02T07:08:54.478Z,1940.00
2018-04-02T07:09:54.445Z,1964.00
2018-04-02T07:10:54.490Z,1984.00
2018-04-02T07:11:54.466Z,1992.00
2018-04-02T07:12:54.525Z,1996.00
2018-04-02T07:13:54.499Z,1984.00
2018-04-02T07:14:54.507Z,1960.00
2018-04-02T07:15:54.525Z,1920.00
2018-04-02T07:16:54.532Z,1868.00
2018-04-02T07:17:54.545Z,1808.00
2018-04-02T07:18:54.560Z,1736.00
2018-04-02T07:19:54.571Z,1656.00
2018-04-02T07:20:54.583Z,1584.00
2018-04-02T07:21:54.598Z,1508.00
2018-04-02T07:22:54.612Z,1444.00
2018-04-02T07:23:54.626Z,1404.00
2018-04-02T07:24:54.636Z,1384.00
2018-04-02T07:25:54.652Z,1384.00
2018-04-02T07:26:54.661Z,1408.00
2018-04-02T07:27:54.675Z,1440.00
2018-04-02T07:28:54.687Z,1488.00
2018-04-02T07:29:54.707Z,1552.00
2018-04-02T07:30:54.712Z,1632.00
2018-04-02T07:31:54.735Z,1696.00
2018-04-02T07:32:54.753Z,1744.00
2018-04-02T07:33:54.832Z,1780.00
2018-04-02T07:34:54.765Z,1812.00
2018-04-02T07:35:54.778Z,1828.00
2018-04-02T07:36:54.789Z,1832.00
2018-04-02T07:37:54.812Z,1840.00
2018-04-02T07:38:54.818Z,1880.00
2018-04-02T07:39:54.897Z,1948.00
2018-04-02T07:40:54.864Z,2056.00
2018-04-02T07:41:54.857Z,2216.00
2018-04-02T07:42:54.872Z,2416.00
2018-04-02T07:43:54.883Z,2520.00
2018-04-02T07:44:54.909Z,2568.00
2018-04-02T07:45:54.911Z,2732.00
2018-04-02T07:46:54.924Z,3120.00
2018-04-02T07:47:54.948Z,3032.00
2018-04-02T07:48:54.951Z,2996.00
2018-04-02T07:49:54.960Z,3408.00
2018-04-02T07:50:54.969Z,3536.00
2018-04-02T07:51:54.991Z,3448.00
2018-04-02T07:52:54.997Z,3436.00
2018-04-02T07:53:55.066Z,3312.00
2018-04-02T07:54:55.024Z,3132.00
2018-04-02T07:55:55.035Z,3188.00
2018-04-02T07:56:55.056Z,3068.00
2018-04-02T07:57:55.082Z,3012.00
2018-04-02T07:58:55.078Z,3016.00
2018-04-02T07:59:55.088Z,2880.00
2018-04-02T08:00:55.110Z,2796.00
2018-04-02T08:01:55.121Z,2740.00
2018-04-02T08:02:55.268Z,2732.00
2018-04-02T08:03:55.160Z,2752.00
2018-04-02T08:04:55.159Z,2824.00
2018-04-02T08:05:55.170Z,2992.00
2018-04-02T08:06:55.182Z,3072.00
2018-04-02T08:07:55.197Z,3132.00
2018-04-02T08:08:55.213Z,3300.00
2018-04-02T08:09:55.231Z,3528.00
2018-04-02T08:10:55.247Z,3672.00
2018-04-02T08:11:55.249Z,3692.00
2018-04-02T08:12:55.263Z,3556.00
2018-04-02T08:13:55.418Z,3236.00
2018-04-02T08:14:55.301Z,3132.00
2018-04-02T08:15:55.345Z,3112.00
2018-04-02T08:16:55.322Z,3140.00
2018-04-02T08:17:55.341Z,3264.00
2018-04-02T08:18:55.349Z,3396.00
2018-04-02T08:19:55.364Z,3572.00
2018-04-02T08:20:55.374Z,3716.00
2018-04-02T08:21:55.390Z,3892.00
2018-04-02T08:22:55.484Z,3548.00
2018-04-02T08:23:55.434Z,3716.00
2018-04-02T08:24:55.434Z,3440.00
2018-04-02T08:25:55.451Z,3288.00
2018-04-02T08:26:55.455Z,3220.00
2018-04-02T08:27:55.468Z,3152.00
2018-04-02T08:28:55.485Z,3140.00
2018-04-02T08:29:55.499Z,3148.00
2018-04-02T08:30:55.511Z,3092.00
2018-04-02T08:31:55.624Z,3236.00
2018-04-02T08:32:55.545Z,3308.00
2018-04-02T08:33:55.557Z,3316.00
2018-04-02T08:34:55.571Z,3660.00
2018-04-02T08:35:55.586Z,4112.00
2018-04-02T08:36:55.599Z,4080.00
2018-04-02T08:37:55.612Z,3748.00
2018-04-02T08:38:55.678Z,3708.00
2018-04-02T08:39:55.639Z,3984.00
2018-04-02T08:40:55.651Z,4096.00
2018-04-02T08:41:55.674Z,3928.00
2018-04-02T08:42:55.687Z,3852.00
2018-04-02T08:43:55.696Z,4000.00
2018-04-02T08:44:55.714Z,3988.00
2018-04-02T08:45:55.723Z,4064.00
2018-04-02T08:46:55.737Z,4056.00
2018-04-02T08:48:55.764Z,3720.00
2018-04-02T08:49:55.781Z,3648.00
2018-04-02T08:50:55.798Z,3656.00
2018-04-02T08:51:55.809Z,3632.00
2018-04-02T08:52:55.872Z,3572.00
2018-04-02T08:53:55.836Z,3524.00
2018-04-02T08:54:55.851Z,3504.00
2018-04-02T08:55:55.865Z,3552.00
2018-04-02T08:56:55.879Z,3628.00
2018-04-02T08:57:55.905Z,3724.00
2018-04-02T08:58:55.909Z,3820.00
2018-04-02T08:59:55.936Z,3896.00
2018-04-02T09:00:55.936Z,3944.00
2018-04-02T09:01:55.948Z,4048.00
2018-04-02T09:02:55.974Z,4088.00
2018-04-02T09:03:55.985Z,4060.00
2018-04-02T09:04:56.026Z,3968.00
2018-04-02T09:05:56.009Z,3900.00
2018-04-02T09:06:56.034Z,3868.00
2018-04-02T09:07:56.036Z,3748.00
2018-04-02T09:08:56.053Z,3776.00
2018-04-02T09:09:56.066Z,3872.00
2018-04-02T09:10:56.086Z,3932.00
2018-04-02T09:11:56.095Z,3964.00
2018-04-02T09:12:56.108Z,3956.00
2018-04-02T09:13:56.126Z,4012.00
2018-04-02T09:14:56.140Z,4052.00
2018-04-02T09:15:56.152Z,4092.00
2018-04-02T09:16:56.168Z,4144.00
2018-04-02T09:17:56.182Z,4152.00
2018-04-02T09:18:56.202Z,4124.00
2018-04-02T09:19:56.216Z,4072.00
2018-04-02T09:20:56.255Z,4036.00
2018-04-02T09:21:56.241Z,4008.00
2018-04-02T09:22:56.256Z,4016.00
2018-04-02T09:23:56.267Z,4028.00
2018-04-02T09:24:56.286Z,4012.00
2018-04-02T09:25:56.298Z,4168.00
2018-04-02T09:26:56.312Z,4128.00
2018-04-02T09:27:56.327Z,4060.00
2018-04-02T09:28:56.342Z,3940.00
2018-04-02T09:29:56.365Z,3840.00
2018-04-02T09:30:56.378Z,3772.00
2018-04-02T09:31:56.400Z,3760.00
2018-04-02T09:32:56.402Z,3772.00
2018-04-02T09:33:56.415Z,3816.00
2018-04-02T09:34:56.430Z,3884.00
2018-04-02T09:35:56.451Z,4052.00
2018-04-02T09:36:56.510Z,4188.00
2018-04-02T09:37:56.505Z,4412.00
2018-04-02T09:38:56.490Z,4676.00
2018-04-02T09:39:56.505Z,4760.00
2018-04-02T09:40:56.518Z,4852.00
2018-04-02T09:41:56.535Z,4808.00
2018-04-02T09:42:56.560Z,4840.00
2018-04-02T09:43:56.562Z,4816.00
2018-04-02T09:44:56.577Z,4908.00
2018-04-02T09:45:56.592Z,4948.00
2018-04-02T09:46:56.616Z,4852.00
2018-04-02T09:47:56.623Z,4772.00
2018-04-02T09:48:56.636Z,4764.00
2018-04-02T09:49:56.656Z,4848.00
2018-04-02T09:50:56.667Z,4940.00
2018-04-02T09:51:56.684Z,5072.00
2018-04-02T09:52:56.702Z,5020.00
2018-04-02T09:53:57.022Z,4768.00
2018-04-02T09:54:56.729Z,4528.00
2018-04-02T09:55:56.745Z,4388.00
2018-04-02T09:56:56.761Z,4264.00
2018-04-02T09:57:56.777Z,4076.00
2018-04-02T09:58:56.789Z,3904.00
2018-04-02T09:59:56.804Z,3768.00
2018-04-02T10:00:56.821Z,3812.00
2018-04-02T10:01:56.833Z,3964.00
2018-04-02T10:02:56.864Z,4044.00
2018-04-02T10:03:56.864Z,4068.00
2018-04-02T10:04:56.999Z,4004.00
2018-04-02T10:05:56.899Z,3932.00
2018-04-02T10:06:56.915Z,3880.00
2018-04-02T10:07:56.925Z,3928.00
2018-04-02T10:08:56.947Z,3988.00
2018-04-02T10:09:56.997Z,4044.00
2018-04-02T10:10:56.974Z,4100.00
2018-04-02T10:11:56.984Z,4136.00
2018-04-02T10:12:57.001Z,4220.00
2018-04-02T10:13:57.017Z,4308.00
2018-04-02T10:14:57.037Z,4336.00
2018-04-02T10:15:57.048Z,4328.00
2018-04-02T10:16:57.062Z,4312.00
2018-04-02T10:17:57.082Z,4376.00
2018-04-02T10:18:57.095Z,4428.00
2018-04-02T10:19:57.111Z,4440.00
2018-04-02T10:20:57.121Z,4416.00
2018-04-02T10:21:57.141Z,4460.00
2018-04-02T10:22:57.151Z,4572.00
2018-04-02T10:23:57.269Z,4648.00
2018-04-02T10:24:57.182Z,4804.00
2018-04-02T10:25:57.199Z,4968.00
2018-04-02T10:26:57.213Z,5460.00
2018-04-02T10:27:57.245Z,5940.00
2018-04-02T10:28:57.244Z,5648.00
2018-04-02T10:29:57.312Z,6044.00
2018-04-02T10:30:57.276Z,6024.00
2018-04-02T10:31:57.291Z,5460.00
2018-04-02T10:32:57.306Z,5136.00
2018-04-02T10:33:57.321Z,5004.00
2018-04-02T10:34:57.350Z,4244.00
2018-04-02T10:35:57.354Z,4016.00
2018-04-02T10:36:57.367Z,3820.00
2018-04-02T10:37:57.382Z,3872.00
2018-04-02T10:38:57.498Z,4012.00
2018-04-02T10:39:57.414Z,3816.00
2018-04-02T10:40:57.429Z,4080.00
2018-04-02T10:41:57.444Z,4012.00
2018-04-02T10:42:57.467Z,4464.00
2018-04-02T10:43:57.522Z,4788.00
2018-04-02T10:44:57.492Z,4820.00
2018-04-02T10:45:57.505Z,4808.00
2018-04-02T10:46:57.521Z,4644.00
2018-04-02T10:47:57.537Z,4972.00
2018-04-02T10:48:57.547Z,5216.00
2018-04-02T10:49:57.578Z,5232.00
2018-04-02T10:50:57.587Z,5420.00
2018-04-02T10:51:57.607Z,5736.00
2018-04-02T10:52:57.611Z,5888.00
2018-04-02T10:53:57.646Z,5776.00
2018-04-02T10:54:57.658Z,5920.00
2018-04-02T10:55:57.658Z,5856.00
2018-04-02T10:56:57.673Z,5960.00
2018-04-02T10:57:57.687Z,5924.00
2018-04-02T10:58:57.714Z,6088.00
2018-04-02T10:59:57.742Z,5844.00
2018-04-02T11:00:57.770Z,5712.00
2018-04-02T11:01:57.750Z,5408.00
2018-04-02T11:02:57.766Z,5560.00
2018-04-02T11:03:57.788Z,5520.00
2018-04-02T11:04:57.820Z,5456.00
2018-04-02T11:05:57.813Z,5208.00
2018-04-02T11:06:57.822Z,5568.00
2018-04-02T11:07:57.835Z,5820.00
2018-04-02T11:08:57.855Z,6292.00
2018-04-02T11:09:57.874Z,6400.00
2018-04-02T11:10:57.881Z,5976.00
2018-04-02T11:11:57.914Z,6708.00
2018-04-02T11:12:57.916Z,6060.00
2018-04-02T11:13:57.928Z,6108.00
2018-04-02T11:14:57.944Z,6336.00
2018-04-02T11:15:57.959Z,6372.00
2018-04-02T11:16:57.976Z,5692.00
2018-04-02T11:17:58.020Z,5776.00
2018-04-02T11:18:58.008Z,5796.00
2018-04-02T11:19:58.022Z,5248.00
2018-04-02T11:20:58.040Z,5116.00
2018-04-02T11:21:58.054Z,5268.00
2018-04-02T11:22:58.068Z,5144.00
2018-04-02T11:23:58.084Z,4684.00
2018-04-02T11:24:58.101Z,4080.00
2018-04-02T11:25:58.116Z,3828.00
2018-04-02T11:26:58.133Z,3972.00
2018-04-02T11:27:58.154Z,4040.00
2018-04-02T11:28:58.170Z,3940.00
2018-04-02T11:29:58.179Z,4164.00
2018-04-02T11:30:58.193Z,4664.00
2018-04-02T11:31:58.259Z,5212.00
2018-04-02T11:32:58.225Z,5396.00
2018-04-02T11:33:58.246Z,5160.00
2018-04-02T11:34:58.261Z,4848.00
2018-04-02T11:35:58.274Z,4564.00
2018-04-02T11:36:58.288Z,4140.00
2018-04-02T11:37:58.312Z,3732.00
2018-04-02T11:38:58.320Z,3568.00
2018-04-02T11:39:58.334Z,3648.00
2018-04-02T11:40:58.351Z,3584.00
2018-04-02T11:41:58.366Z,3420.00
2018-04-02T11:42:58.567Z,3120.00
2018-04-02T11:43:58.527Z,2788.00
2018-04-02T11:44:58.421Z,2668.00
2018-04-02T11:45:58.432Z,2716.00
2018-04-02T11:46:58.448Z,2920.00
2018-04-02T11:47:58.459Z,3444.00
2018-04-02T11:48:58.475Z,3880.00
2018-04-02T11:49:58.494Z,4196.00
2018-04-02T11:50:58.506Z,4476.00
2018-04-02T11:51:58.522Z,4852.00
2018-04-02T11:52:58.537Z,5164.00
2018-04-02T11:53:58.557Z,5104.00
2018-04-02T11:54:58.570Z,4784.00
2018-04-02T11:55:58.584Z,4216.00
2018-04-02T11:56:58.601Z,3608.00
2018-04-02T11:57:58.617Z,3236.00
2018-04-02T11:58:58.631Z,3260.00
2018-04-02T11:59:58.646Z,3548.00
2018-04-02T12:00:58.661Z,3996.00
2018-04-02T12:01:58.683Z,4328.00
2018-04-02T12:02:58.703Z,4412.00
2018-04-02T12:03:58.730Z,4248.00
2018-04-02T12:04:58.730Z,3876.00
2018-04-02T12:05:58.754Z,3628.00
2018-04-02T12:06:58.770Z,3516.00
2018-04-02T12:07:58.772Z,3360.00
2018-04-02T12:08:58.787Z,3076.00
2018-04-02T12:09:58.805Z,2844.00
2018-04-02T12:10:58.822Z,2676.00
2018-04-02T12:11:58.834Z,2764.00
2018-04-02T12:12:58.849Z,3020.00
2018-04-02T12:13:58.876Z,3408.00
2018-04-02T12:14:58.882Z,3792.00
2018-04-02T12:15:58.999Z,4104.00
2018-04-02T12:16:58.912Z,4204.00
2018-04-02T12:17:58.932Z,4096.00
2018-04-02T12:18:58.950Z,3868.00
2018-04-02T12:19:58.958Z,3596.00
2018-04-02T12:20:59.005Z,3356.00
2018-04-02T12:21:58.990Z,3280.00
2018-04-02T12:22:59.011Z,3388.00
2018-04-02T12:23:59.021Z,3528.00
2018-04-02T12:24:59.038Z,3656.00
2018-04-02T12:25:59.057Z,3784.00
2018-04-02T12:26:59.073Z,3984.00
2018-04-02T12:27:59.084Z,4244.00
2018-04-02T12:28:59.128Z,4452.00
2018-04-02T12:29:59.121Z,4580.00
2018-04-02T12:30:59.137Z,4600.00
2018-04-02T12:31:59.149Z,4616.00
2018-04-02T12:32:59.166Z,4692.00
2018-04-02T12:33:59.179Z,4780.00
2018-04-02T12:34:59.195Z,4896.00
2018-04-02T12:35:59.215Z,5072.00
2018-04-02T12:36:59.256Z,5336.00
2018-04-02T12:37:59.246Z,5448.00